Terminal Aerodrome Forecast
Issued by NWS

Home | Current Version | Previous Version | Text Only | Print | Product List | Glossary On
Versions: 1 2 3 4 5 6 7 8 9 10 11 12 13 14 15 16 17 18 19 20 21 22 23 24 25 26 27 28 29 30 31 32 33 34 35 36 37 38 39 40 41 42 43 44 45 46 47 48
000
FTUS42 KGSP 171741
TAFHKY
TAF
KHKY 171741Z 1718/1818 21009KT 5SM BR VCSH OVC005
     FM172100 21010KT P6SM VCSH BKN015
     FM180000 21008KT 5SM BR VCSH OVC045
     FM180300 22008KT 3SM BR OVC012
     FM181000 24006KT 2SM BR BKN008
     FM181400 28006KT P6SM BKN100=

USA.gov is the U.S. government's official web portal to all federal, state and local government web resources and services.